CheckWX is a tool to help pilots better visualize weather data.  It is not intended as a substitute for an official pre-flight weather briefing.

06:23:41 UTC

EGJB TAF
Guernsey Airport
Saint Peter Port, Guernsey
TAF EGJB 250455Z 2506/2515 17017KT 9999 SCT020 PROB40 TEMPO 2506/2515 8000 SHRA BKN015CB PROB30 TEMPO 2510/2515 15020G30KT 3000 TSRA

Apr-25@
06:00 UTC

Apr-25 @ 06:00 UTC

Apr-25@
15:00 UTC

Apr-25 @ 15:00 UTC

TAF EGJB 250455Z 2506/2515 17017KT 9999 SCT020
Wind
  • 170° at 17 KTS
Cloud Levels
  • Scattered at 2,000' AGL

Apr-25@
06:00 UTC

Apr-25 @ 06:00 UTC

Apr-25@
15:00 UTC

Apr-25 @ 15:00 UTC

PROB40 TEMPO 2506/2515 8000 SHRA BKN015CB

Temporary - 40% Likelihood

Temporary - 40% Likelihood during this time.

Conditions
Rain
Cloud Levels
  • Broken at 1,500' AGL

Apr-25@
10:00 UTC

Apr-25 @ 10:00 UTC

Apr-25@
15:00 UTC

Apr-25 @ 15:00 UTC

PROB30 TEMPO 2510/2515 15020G30KT 3000 TSRA

Temporary - 30% Likelihood

Temporary - 30% Likelihood during this time.

Wind
  • 150° at 20 KTS
  • {Gusting to 30 KTS
Conditions
Thunderstorm, Rain